Time;durP1;ratioP1;P1;durP2;ratioP2;P2;SDS_P1;SDS_P2;PMS_P1;PMS_P2;Temp;Humidity;BMP_temperature;BMP_pressure;BME280_temperature;BME280_humidity;BME280_pressure;Samples;Min_cycle;Max_cycle;Signal;HPM_P1;HPM_P2
2021/07/21 00:00:04;;;;;;;0.40;0.40;;;15.00;99.90;;;;;;5017891;28;20194;-81
2021/07/21 00:02:29;;;;;;;0.57;0.57;;;14.90;99.90;;;;;;5019398;28;20319;-81
2021/07/21 00:04:55;;;;;;;0.40;0.40;;;14.90;99.90;;;;;;5020084;28;20253;-81
2021/07/21 00:07:21;;;;;;;0.47;0.47;;;14.80;99.90;;;;;;5022899;28;20318;-81
2021/07/21 00:09:46;;;;;;;0.63;0.63;;;14.80;99.90;;;;;;5016413;28;20216;-82
2021/07/21 00:15:40;;;;;;;0.50;0.50;;;14.80;99.90;;;;;;5017898;28;20213;-82
2021/07/21 00:20:44;;;;;;;0.43;0.43;;;14.80;99.90;;;;;;5015823;28;20191;-81
2021/07/21 00:23:10;;;;;;;0.40;0.40;;;14.70;99.90;;;;;;5016731;28;20229;-80
2021/07/21 00:25:35;;;;;;;0.60;0.60;;;14.70;99.90;;;;;;5017746;28;20209;-81
2021/07/21 00:28:01;;;;;;;0.50;0.50;;;14.60;99.90;;;;;;5015858;28;21013;-81
2021/07/21 00:30:28;;;;;;;0.50;0.50;;;14.60;99.90;;;;;;5016236;28;20198;-82
2021/07/21 00:32:55;;;;;;;2.55;0.93;;;14.40;99.90;;;;;;5015328;28;20638;-81
2021/07/21 00:35:20;;;;;;;0.73;0.60;;;14.40;99.90;;;;;;5019852;28;20233;-81
2021/07/21 00:37:46;;;;;;;1.00;0.90;;;14.40;99.90;;;;;;5015829;28;20250;-81
2021/07/21 00:40:15;;;;;;;0.50;0.50;;;14.30;99.90;;;;;;5020546;28;20202;-81
2021/07/21 00:42:42;;;;;;;0.50;0.50;;;14.30;99.90;;;;;;5018983;28;20220;-82
2021/07/21 00:45:08;;;;;;;0.40;0.40;;;14.20;99.90;;;;;;5015303;28;20217;-81
2021/07/21 00:47:35;;;;;;;0.40;0.40;;;14.20;99.90;;;;;;5018371;28;20661;-82
2021/07/21 00:50:01;;;;;;;0.50;0.50;;;14.20;99.90;;;;;;5016364;28;20202;-81
2021/07/21 00:52:27;;;;;;;0.50;0.50;;;14.20;99.90;;;;;;5001206;28;20206;-81
2021/07/21 00:54:53;;;;;;;0.50;0.50;;;14.30;99.90;;;;;;5017001;28;20235;-81
2021/07/21 00:57:18;;;;;;;0.60;0.60;;;14.30;99.90;;;;;;5005400;28;20198;-81
2021/07/21 00:59:44;;;;;;;0.50;0.50;;;14.40;99.90;;;;;;5016928;28;20199;-81
2021/07/21 01:02:10;;;;;;;0.50;0.50;;;14.40;99.90;;;;;;5014371;23;20234;-73
2021/07/21 01:04:37;;;;;;;0.60;0.60;;;14.40;99.90;;;;;;5017837;28;20358;-73
2021/07/21 01:07:05;;;;;;;0.50;0.50;;;14.50;99.90;;;;;;5013391;28;20182;-73
2021/07/21 01:09:32;;;;;;;0.63;0.63;;;14.50;99.90;;;;;;5010108;28;20267;-73
2021/07/21 01:12:07;;;;;;;0.50;0.50;;;14.50;99.90;;;;;;5013676;28;20297;-73
2021/07/21 01:14:36;;;;;;;0.43;0.43;;;14.50;99.90;;;;;;5015393;28;20445;-70
2021/07/21 01:17:06;;;;;;;0.60;0.60;;;14.50;99.90;;;;;;5015494;28;20199;-73
2021/07/21 01:19:46;;;;;;;0.50;0.50;;;14.50;99.90;;;;;;5014420;28;21207;-73
2021/07/21 01:22:35;;;;;;;0.60;0.60;;;14.50;99.90;;;;;;5013318;28;20202;-73
2021/07/21 01:25:26;;;;;;;0.50;0.50;;;14.40;99.90;;;;;;5015186;28;20296;-73
2021/07/21 01:27:54;;;;;;;0.50;0.50;;;14.40;99.90;;;;;;5010418;28;20198;-73
2021/07/21 01:30:25;;;;;;;0.50;0.50;;;14.40;99.90;;;;;;5012036;28;20579;-73
2021/07/21 01:33:06;;;;;;;0.50;0.50;;;14.30;99.90;;;;;;5019159;28;20194;-73
2021/07/21 01:35:45;;;;;;;0.50;0.50;;;14.30;99.90;;;;;;5013006;28;20225;-73
2021/07/21 01:38:23;;;;;;;0.50;0.50;;;14.30;99.90;;;;;;5016565;28;20213;-73
2021/07/21 01:40:55;;;;;;;0.50;0.50;;;14.20;99.90;;;;;;5015585;28;20576;-73
2021/07/21 01:43:30;;;;;;;0.60;0.60;;;14.20;99.90;;;;;;5017196;28;20293;-73
2021/07/21 01:45:58;;;;;;;0.40;0.40;;;14.10;99.90;;;;;;5020201;28;20318;-73
2021/07/21 01:48:25;;;;;;;0.50;0.50;;;14.10;99.90;;;;;;5020219;28;20747;-73
2021/07/21 01:50:55;;;;;;;0.50;0.50;;;14.10;99.90;;;;;;5020929;28;20202;-73
2021/07/21 01:53:21;;;;;;;3.30;1.75;;;14.00;99.90;;;;;;5016931;28;20768;-73
2021/07/21 01:55:48;;;;;;;1.17;0.98;;;14.00;99.90;;;;;;5019342;28;20743;-73
2021/07/21 01:58:14;;;;;;;0.40;0.40;;;13.90;99.90;;;;;;5017534;28;20248;-73
2021/07/21 02:00:42;;;;;;;0.50;0.50;;;13.90;99.90;;;;;;5014354;28;20238;-73
2021/07/21 02:03:10;;;;;;;0.40;0.40;;;13.90;99.90;;;;;;5023044;28;20201;-73
2021/07/21 02:05:37;;;;;;;0.70;0.70;;;14.00;99.90;;;;;;5025567;28;20221;-73
2021/07/21 02:08:04;;;;;;;0.47;0.47;;;14.00;99.90;;;;;;5020249;28;20217;-73
2021/07/21 02:10:31;;;;;;;0.50;0.50;;;14.00;99.90;;;;;;5022045;28;20205;-73
2021/07/21 02:13:09;;;;;;;0.50;0.50;;;14.00;99.90;;;;;;5021808;28;20618;-73
2021/07/21 02:15:35;;;;;;;0.50;0.50;;;14.10;99.90;;;;;;5019630;28;20190;-73
2021/07/21 02:18:03;;;;;;;0.40;0.40;;;14.00;99.90;;;;;;5019501;28;20202;-73
2021/07/21 02:20:29;;;;;;;7.72;2.40;;;14.00;99.90;;;;;;5020410;28;20718;-73
2021/07/21 02:22:55;;;;;;;0.40;0.40;;;14.00;99.90;;;;;;5021823;28;20196;-72
2021/07/21 02:25:23;;;;;;;0.50;0.50;;;13.90;99.90;;;;;;5020863;28;20263;-73
2021/07/21 02:27:48;;;;;;;0.40;0.40;;;13.90;99.90;;;;;;5021190;28;20230;-70
2021/07/21 02:30:15;;;;;;;0.50;0.50;;;13.90;99.90;;;;;;5018540;28;20272;-73
2021/07/21 02:32:50;;;;;;;0.50;0.50;;;14.00;99.90;;;;;;5020461;28;20653;-73
2021/07/21 02:35:20;;;;;;;0.40;0.40;;;14.00;99.90;;;;;;5020402;28;20212;-73
2021/07/21 02:37:47;;;;;;;0.50;0.50;;;14.00;99.90;;;;;;5020149;28;20198;-73
2021/07/21 02:40:14;;;;;;;0.40;0.40;;;13.90;99.90;;;;;;5019529;28;20199;-73
2021/07/21 02:42:39;;;;;;;0.40;0.40;;;13.90;99.90;;;;;;5019708;28;20690;-72
2021/07/21 02:45:05;;;;;;;0.50;0.50;;;13.90;99.90;;;;;;5023270;28;20285;-73
2021/07/21 02:47:32;;;;;;;0.50;0.50;;;13.90;99.90;;;;;;5021246;28;20225;-73
2021/07/21 02:49:58;;;;;;;0.50;0.50;;;13.80;99.90;;;;;;5036040;28;20713;-73
2021/07/21 02:52:32;;;;;;;0.50;0.50;;;13.80;99.90;;;;;;5020742;28;20197;-73
2021/07/21 02:55:10;;;;;;;0.50;0.50;;;13.80;99.90;;;;;;5020233;28;20256;-73
2021/07/21 02:57:43;;;;;;;0.50;0.50;;;13.80;99.90;;;;;;5021306;28;20251;-73
2021/07/21 03:00:20;;;;;;;0.50;0.50;;;13.70;99.90;;;;;;5021982;28;20198;-73
2021/07/21 03:02:50;;;;;;;0.52;0.52;;;13.70;99.90;;;;;;5023427;28;20319;-72
2021/07/21 03:05:19;;;;;;;0.45;0.45;;;13.70;99.90;;;;;;5017075;28;20717;-73
2021/07/21 03:07:47;;;;;;;0.20;0.20;;;13.80;99.90;;;;;;5020150;28;20686;-73
2021/07/21 03:10:15;;;;;;;0.20;0.20;;;13.80;99.90;;;;;;5014366;28;20186;-73
2021/07/21 03:12:45;;;;;;;0.55;0.50;;;13.80;99.90;;;;;;5014120;28;20265;-73
2021/07/21 03:15:13;;;;;;;0.28;0.28;;;13.70;99.90;;;;;;5017832;28;20539;-72
2021/07/21 03:17:40;;;;;;;1.55;0.90;;;13.80;99.90;;;;;;5019013;28;20304;-73
2021/07/21 03:20:08;;;;;;;0.20;0.20;;;13.70;99.90;;;;;;5019251;28;20194;-73
2021/07/21 03:22:37;;;;;;;0.20;0.20;;;13.70;99.90;;;;;;5018473;28;20555;-72
2021/07/21 03:25:08;;;;;;;0.20;0.20;;;13.70;99.90;;;;;;5021296;28;20198;-73
2021/07/21 03:27:36;;;;;;;0.20;0.20;;;13.60;99.90;;;;;;5017700;28;20953;-73
2021/07/21 03:30:07;;;;;;;0.20;0.20;;;13.60;99.90;;;;;;5015294;28;20217;-73
2021/07/21 03:32:34;;;;;;;0.20;0.20;;;13.50;99.90;;;;;;5021120;28;20199;-72
2021/07/21 03:35:00;;;;;;;0.20;0.20;;;13.50;99.90;;;;;;5018050;28;20244;-73
2021/07/21 03:37:27;;;;;;;0.20;0.20;;;13.50;99.90;;;;;;5021175;28;20293;-73
2021/07/21 03:39:58;;;;;;;0.20;0.20;;;13.50;99.90;;;;;;5018752;28;20778;-73
2021/07/21 03:42:26;;;;;;;4.40;0.45;;;13.50;99.90;;;;;;5021154;28;20522;-73
2021/07/21 03:45:00;;;;;;;0.13;0.13;;;13.60;99.90;;;;;;5022046;28;20573;-73
2021/07/21 03:47:27;;;;;;;0.20;0.20;;;13.60;99.90;;;;;;5017500;28;20226;-73
2021/07/21 03:49:53;;;;;;;0.30;0.30;;;13.60;99.90;;;;;;5014628;28;20221;-73
2021/07/21 03:52:20;;;;;;;0.20;0.20;;;13.60;99.90;;;;;;5015767;28;20867;-73
2021/07/21 03:54:46;;;;;;;0.20;0.20;;;13.50;99.90;;;;;;5022129;28;20563;-72
2021/07/21 03:57:16;;;;;;;0.20;0.20;;;13.50;99.90;;;;;;5018128;28;20198;-73
2021/07/21 03:59:42;;;;;;;0.20;0.20;;;13.50;99.90;;;;;;5020644;28;20202;-73
2021/07/21 04:02:08;;;;;;;0.20;0.20;;;13.50;99.90;;;;;;5019929;28;20225;-73
2021/07/21 04:04:38;;;;;;;0.20;0.20;;;13.50;99.90;;;;;;5016084;28;20767;-73
2021/07/21 04:07:06;;;;;;;0.20;0.20;;;13.60;99.90;;;;;;5020808;28;20233;-73
2021/07/21 04:09:34;;;;;;;0.20;0.20;;;13.60;99.90;;;;;;5016513;28;20606;-73
2021/07/21 04:12:01;;;;;;;0.20;0.20;;;13.60;99.90;;;;;;5022137;28;20186;-73
2021/07/21 04:14:28;;;;;;;0.10;0.10;;;13.60;99.90;;;;;;5015364;28;20199;-73
2021/07/21 04:16:55;;;;;;;0.20;0.20;;;14.10;99.90;;;;;;5015109;28;20567;-70
2021/07/21 04:19:22;;;;;;;0.30;0.30;;;14.50;99.90;;;;;;5015405;28;20626;-73
2021/07/21 04:21:52;;;;;;;0.20;0.20;;;15.10;99.90;;;;;;5017217;28;20205;-73
2021/07/21 04:24:20;;;;;;;0.30;0.30;;;15.40;99.90;;;;;;5018487;28;20207;-73
2021/07/21 04:26:47;;;;;;;0.20;0.20;;;15.70;99.90;;;;;;5018189;28;20268;-73
2021/07/21 04:29:15;;;;;;;0.25;0.25;;;15.50;99.90;;;;;;5013380;28;20253;-73
2021/07/21 04:31:44;;;;;;;0.10;0.10;;;15.30;99.90;;;;;;5015586;28;20201;-72
2021/07/21 04:34:11;;;;;;;0.10;0.10;;;15.40;99.90;;;;;;5013954;28;20214;-72
2021/07/21 04:36:38;;;;;;;0.10;0.10;;;15.60;99.90;;;;;;5015933;28;20202;-72
2021/07/21 04:39:05;;;;;;;1.08;0.35;;;15.50;99.90;;;;;;5018399;28;20197;-72
2021/07/21 04:41:32;;;;;;;0.10;0.10;;;15.40;99.90;;;;;;5017228;28;20297;-72
2021/07/21 04:44:00;;;;;;;0.20;0.20;;;15.20;99.90;;;;;;5036592;28;20699;-72
2021/07/21 04:46:26;;;;;;;0.30;0.30;;;15.30;99.90;;;;;;5021492;28;20230;-73
2021/07/21 04:48:53;;;;;;;0.10;0.10;;;15.50;99.90;;;;;;5020767;28;20213;-70
2021/07/21 04:51:22;;;;;;;0.10;0.10;;;15.70;99.90;;;;;;5020485;28;20197;-71
2021/07/21 04:53:53;;;;;;;0.10;0.10;;;15.70;99.90;;;;;;5018522;28;20199;-71
2021/07/21 04:56:20;;;;;;;0.10;0.10;;;15.50;99.90;;;;;;5024036;28;20971;-71
2021/07/21 04:58:45;;;;;;;0.10;0.10;;;15.20;99.90;;;;;;5020432;28;20202;-71
2021/07/21 05:01:12;;;;;;;0.10;0.10;;;14.90;99.90;;;;;;5020539;28;20751;-71
2021/07/21 05:03:38;;;;;;;0.20;0.20;;;14.80;99.90;;;;;;5016644;28;20267;-71
2021/07/21 05:06:03;;;;;;;0.10;0.10;;;14.70;99.90;;;;;;5016764;28;20202;-71
2021/07/21 05:08:29;;;;;;;0.10;0.10;;;14.70;99.90;;;;;;5022748;28;20214;-71
2021/07/21 05:10:55;;;;;;;0.10;0.10;;;14.70;99.90;;;;;;5015194;28;20854;-71
2021/07/21 05:13:21;;;;;;;0.13;0.13;;;14.70;99.90;;;;;;5020356;28;20683;-71
2021/07/21 05:15:48;;;;;;;0.20;0.20;;;14.70;99.90;;;;;;5019218;28;20199;-71
2021/07/21 05:18:14;;;;;;;0.20;0.20;;;14.70;99.90;;;;;;5014403;28;20202;-71
2021/07/21 05:20:40;;;;;;;0.20;0.20;;;14.80;99.90;;;;;;5017244;28;20226;-71
2021/07/21 05:23:06;;;;;;;0.10;0.10;;;15.00;99.90;;;;;;5022323;28;20496;-71
2021/07/21 05:25:32;;;;;;;0.10;0.10;;;15.10;99.90;;;;;;5018932;28;20636;-71
2021/07/21 05:27:58;;;;;;;0.10;0.10;;;15.30;99.90;;;;;;5021015;28;20186;-71
2021/07/21 05:30:23;;;;;;;0.10;0.10;;;15.40;99.90;;;;;;5013017;28;20194;-71
2021/07/21 05:32:49;;;;;;;0.10;0.10;;;15.40;99.90;;;;;;5016169;28;20289;-71
2021/07/21 05:35:15;;;;;;;0.20;0.20;;;15.50;99.90;;;;;;5021683;28;20190;-71
2021/07/21 05:37:40;;;;;;;0.10;0.10;;;15.70;99.90;;;;;;5027504;28;20666;-71
2021/07/21 05:40:07;;;;;;;0.20;0.20;;;15.80;99.90;;;;;;5027690;28;20653;-71
2021/07/21 05:42:33;;;;;;;0.15;0.15;;;15.90;99.90;;;;;;5023258;28;20625;-71
2021/07/21 05:44:59;;;;;;;0.10;0.10;;;15.90;99.90;;;;;;5020423;28;20195;-71
2021/07/21 05:47:24;;;;;;;0.13;0.13;;;15.80;99.90;;;;;;5025518;28;20209;-71
2021/07/21 05:49:50;;;;;;;0.10;0.10;;;15.70;99.90;;;;;;5018419;28;20202;-71
2021/07/21 05:52:16;;;;;;;0.22;0.22;;;15.70;99.90;;;;;;5024789;28;20202;-72
2021/07/21 05:54:42;;;;;;;0.10;0.10;;;15.80;99.90;;;;;;5019170;28;20233;-72
2021/07/21 05:57:08;;;;;;;0.20;0.20;;;15.80;99.90;;;;;;5019288;28;20379;-72
2021/07/21 05:59:34;;;;;;;0.10;0.10;;;15.80;99.90;;;;;;5025967;28;20725;-71
2021/07/21 06:02:00;;;;;;;0.10;0.10;;;15.90;99.90;;;;;;5020934;28;20265;-71
2021/07/21 06:04:26;;;;;;;0.10;0.10;;;16.00;99.90;;;;;;5023820;28;20880;-72
2021/07/21 06:06:52;;;;;;;0.10;0.10;;;16.10;99.90;;;;;;5018319;28;20341;-71
2021/07/21 06:09:17;;;;;;;0.10;0.10;;;16.10;99.90;;;;;;5021493;28;20234;-71
2021/07/21 06:11:43;;;;;;;0.10;0.10;;;16.20;99.90;;;;;;5023010;28;20297;-71
2021/07/21 06:14:10;;;;;;;0.20;0.20;;;16.30;99.90;;;;;;5024118;28;20233;-71
2021/07/21 06:16:36;;;;;;;0.15;0.15;;;16.40;99.90;;;;;;5019505;28;20206;-71
2021/07/21 06:19:03;;;;;;;0.15;0.15;;;16.30;99.90;;;;;;5016301;28;20198;-71
2021/07/21 06:21:28;;;;;;;0.10;0.10;;;16.40;99.90;;;;;;5021984;28;21197;-71
2021/07/21 06:23:54;;;;;;;0.10;0.10;;;16.30;99.90;;;;;;5022121;28;20205;-72
2021/07/21 06:26:20;;;;;;;0.35;0.20;;;16.40;99.90;;;;;;5014806;28;20346;-71
2021/07/21 06:28:47;;;;;;;0.30;0.30;;;16.50;99.90;;;;;;5020193;28;20257;-72
2021/07/21 06:31:13;;;;;;;0.10;0.10;;;16.50;99.90;;;;;;5020533;28;20245;-72
2021/07/21 06:33:39;;;;;;;0.10;0.10;;;16.70;99.90;;;;;;5016635;28;20230;-72
2021/07/21 06:36:05;;;;;;;0.10;0.10;;;16.80;99.90;;;;;;5027156;28;20218;-71
2021/07/21 06:38:30;;;;;;;0.43;0.43;;;16.90;99.90;;;;;;5019509;28;20230;-71
2021/07/21 06:40:56;;;;;;;0.10;0.10;;;17.00;99.90;;;;;;5023201;28;20225;-72
2021/07/21 06:43:22;;;;;;;0.10;0.10;;;16.90;99.90;;;;;;5025520;28;20703;-72
2021/07/21 06:45:48;;;;;;;0.20;0.15;;;17.00;99.90;;;;;;5018051;28;20203;-71
2021/07/21 06:48:14;;;;;;;0.10;0.10;;;17.20;99.90;;;;;;5017140;28;20327;-72
2021/07/21 06:50:40;;;;;;;0.15;0.15;;;17.20;99.90;;;;;;5021884;28;20248;-71
2021/07/21 06:53:05;;;;;;;0.10;0.10;;;17.20;99.90;;;;;;5026560;28;20255;-72
2021/07/21 06:55:31;;;;;;;0.10;0.10;;;17.40;99.90;;;;;;5020740;28;20198;-72
2021/07/21 06:57:58;;;;;;;0.10;0.10;;;17.40;99.90;;;;;;5018482;28;20248;-72
2021/07/21 07:00:25;;;;;;;0.20;0.20;;;17.60;99.90;;;;;;5020862;28;20205;-72
2021/07/21 07:02:50;;;;;;;0.05;0.05;;;17.90;99.90;;;;;;5025109;28;20222;-72
2021/07/21 07:05:16;;;;;;;0.10;0.10;;;18.10;99.90;;;;;;5021318;28;20248;-72
2021/07/21 07:07:42;;;;;;;0.10;0.10;;;18.20;99.90;;;;;;5023290;28;20289;-72
2021/07/21 07:10:09;;;;;;;0.10;0.10;;;18.20;99.90;;;;;;5014448;28;20207;-72
2021/07/21 07:12:34;;;;;;;0.20;0.20;;;18.20;99.90;;;;;;5017853;28;20244;-72
2021/07/21 07:15:00;;;;;;;0.10;0.10;;;18.20;99.90;;;;;;5021011;28;20190;-72
2021/07/21 07:17:27;;;;;;;0.30;0.30;;;18.40;99.90;;;;;;5020037;28;20677;-72
2021/07/21 07:19:54;;;;;;;0.10;0.10;;;18.70;99.90;;;;;;5021403;28;20202;-72
2021/07/21 07:22:20;;;;;;;0.10;0.10;;;19.20;99.90;;;;;;5022384;28;20254;-72
2021/07/21 07:24:47;;;;;;;0.00;0.00;;;19.50;99.90;;;;;;5018598;28;20209;-72
2021/07/21 07:27:12;;;;;;;0.10;0.10;;;19.40;99.90;;;;;;5019879;28;20195;-72
2021/07/21 07:29:38;;;;;;;0.10;0.10;;;19.30;99.90;;;;;;5022697;28;20213;-72
2021/07/21 07:32:04;;;;;;;0.10;0.10;;;19.30;99.90;;;;;;5019684;28;20275;-72
2021/07/21 07:34:30;;;;;;;0.30;0.30;;;19.50;99.90;;;;;;5023995;28;20203;-73
2021/07/21 07:36:55;;;;;;;0.22;0.22;;;19.70;99.90;;;;;;5019270;28;20197;-72
2021/07/21 07:39:21;;;;;;;0.30;0.30;;;19.80;99.90;;;;;;5018280;28;20210;-71
2021/07/21 07:41:48;;;;;;;0.30;0.30;;;19.80;99.90;;;;;;5020167;28;20285;-72
2021/07/21 07:44:14;;;;;;;0.20;0.20;;;20.10;99.90;;;;;;5022854;28;20621;-72
2021/07/21 07:46:40;;;;;;;0.30;0.30;;;20.30;99.90;;;;;;5015159;28;20300;-73
2021/07/21 07:49:07;;;;;;;0.30;0.30;;;20.20;99.90;;;;;;5023894;28;20210;-72
2021/07/21 07:51:33;;;;;;;0.20;0.20;;;20.30;99.90;;;;;;5014546;28;20203;-73
2021/07/21 07:54:01;;;;;;;0.95;0.68;;;20.50;99.90;;;;;;5019678;28;20194;-73
2021/07/21 07:56:27;;;;;;;0.20;0.20;;;20.60;99.90;;;;;;5022251;28;20198;-72
2021/07/21 07:58:53;;;;;;;0.40;0.30;;;20.60;99.10;;;;;;5016480;28;20205;-72
2021/07/21 08:01:19;;;;;;;0.20;0.20;;;20.60;99.90;;;;;;5019445;28;20230;-72
2021/07/21 08:03:45;;;;;;;0.25;0.25;;;20.50;99.90;;;;;;5020971;28;20710;-72
2021/07/21 08:06:10;;;;;;;1.02;0.40;;;20.30;99.90;;;;;;5020808;28;20198;-73
2021/07/21 08:08:36;;;;;;;0.28;0.28;;;20.40;99.90;;;;;;5023910;28;21016;-73
2021/07/21 08:11:04;;;;;;;0.20;0.20;;;20.70;99.90;;;;;;5018139;28;20206;-73
2021/07/21 08:13:30;;;;;;;0.20;0.20;;;20.90;99.90;;;;;;5018123;28;20202;-72
2021/07/21 08:15:56;;;;;;;0.50;0.50;;;20.90;99.90;;;;;;5014872;28;20392;-72
2021/07/21 08:18:22;;;;;;;0.20;0.20;;;20.70;98.10;;;;;;5019230;28;20285;-73
2021/07/21 08:20:48;;;;;;;0.20;0.20;;;20.50;98.50;;;;;;5017351;28;20333;-72
2021/07/21 08:23:15;;;;;;;0.20;0.20;;;20.30;99.70;;;;;;5019165;28;20207;-73
2021/07/21 08:25:43;;;;;;;0.20;0.20;;;20.50;99.10;;;;;;5018541;28;20305;-73
2021/07/21 08:28:10;;;;;;;0.30;0.30;;;20.90;99.90;;;;;;5020476;28;20202;-73
2021/07/21 08:30:35;;;;;;;0.20;0.20;;;21.10;98.30;;;;;;5014259;28;20195;-73
2021/07/21 08:33:01;;;;;;;0.20;0.20;;;21.50;97.70;;;;;;5016051;28;20256;-73
2021/07/21 08:35:30;;;;;;;0.20;0.20;;;21.40;98.80;;;;;;5020518;28;20214;-73
2021/07/21 08:37:57;;;;;;;0.30;0.30;;;21.40;99.40;;;;;;5024028;28;20190;-73
2021/07/21 08:40:24;;;;;;;0.20;0.20;;;21.30;99.20;;;;;;5015168;28;20195;-73
2021/07/21 08:42:51;;;;;;;0.30;0.30;;;21.30;99.90;;;;;;5022458;28;20190;-75
2021/07/21 08:45:17;;;;;;;0.25;0.25;;;21.30;97.10;;;;;;5015219;28;20789;-74
2021/07/21 08:47:43;;;;;;;0.30;0.30;;;21.30;98.60;;;;;;5017576;28;20202;-73
2021/07/21 08:50:10;;;;;;;0.13;0.13;;;21.50;96.20;;;;;;5017876;28;20764;-73
2021/07/21 08:52:36;;;;;;;0.20;0.20;;;21.40;96.60;;;;;;5020148;28;20285;-73
2021/07/21 08:55:04;;;;;;;0.28;0.28;;;21.60;99.00;;;;;;5017589;28;20202;-73
2021/07/21 08:57:34;;;;;;;0.20;0.20;;;22.00;97.90;;;;;;5018672;28;20198;-73
2021/07/21 09:00:01;;;;;;;0.20;0.20;;;22.20;98.10;;;;;;5019278;28;20193;-73
2021/07/21 09:02:27;;;;;;;0.20;0.20;;;22.30;97.20;;;;;;5020516;28;20321;-72
2021/07/21 09:04:53;;;;;;;0.20;0.20;;;22.10;95.80;;;;;;5019950;28;20550;-73
2021/07/21 09:07:20;;;;;;;0.25;0.25;;;21.80;96.60;;;;;;5017698;28;20570;-74
2021/07/21 09:09:46;;;;;;;0.20;0.20;;;22.00;96.10;;;;;;5017108;28;20281;-72
2021/07/21 09:12:12;;;;;;;0.20;0.20;;;22.30;95.70;;;;;;5015868;28;20273;-73
2021/07/21 09:14:39;;;;;;;0.20;0.20;;;22.40;96.90;;;;;;5017240;28;20198;-73
2021/07/21 09:17:08;;;;;;;0.20;0.20;;;22.10;97.00;;;;;;5021193;28;20208;-73
2021/07/21 09:19:37;;;;;;;0.30;0.30;;;22.30;95.80;;;;;;5016883;28;20680;-73
2021/07/21 09:22:21;;;;;;;0.20;0.20;;;22.40;94.50;;;;;;5017796;28;20208;-74
2021/07/21 09:25:09;;;;;;;0.20;0.20;;;22.40;95.00;;;;;;5021051;28;20194;-73
2021/07/21 09:27:36;;;;;;;0.20;0.20;;;22.40;93.60;;;;;;5018628;28;20562;-73
2021/07/21 09:30:04;;;;;;;0.20;0.20;;;22.40;94.40;;;;;;5016574;28;20205;-73
2021/07/21 09:32:30;;;;;;;0.20;0.20;;;22.50;95.00;;;;;;5016400;28;20202;-73
2021/07/21 09:34:56;;;;;;;0.20;0.20;;;22.60;93.70;;;;;;5015122;28;20202;-73
2021/07/21 09:37:22;;;;;;;0.28;0.28;;;22.50;94.50;;;;;;5019868;28;20201;-73
2021/07/21 09:39:50;;;;;;;0.38;0.38;;;22.80;93.00;;;;;;5020243;28;20241;-74
2021/07/21 09:42:26;;;;;;;0.10;0.10;;;23.00;93.80;;;;;;5019608;28;20841;-74
2021/07/21 09:44:52;;;;;;;10.85;0.40;;;23.60;93.80;;;;;;5020214;28;20660;-73
2021/07/21 09:47:22;;;;;;;0.35;0.35;;;23.90;90.90;;;;;;5018780;28;20199;-73
2021/07/21 09:49:49;;;;;;;0.10;0.10;;;23.80;92.90;;;;;;5018030;28;20613;-73
2021/07/21 09:52:21;;;;;;;0.30;0.30;;;23.30;92.30;;;;;;5017633;28;20514;-74
2021/07/21 09:55:05;;;;;;;0.20;0.20;;;23.70;92.70;;;;;;5021452;28;20190;-73
2021/07/21 09:57:32;;;;;;;0.57;0.40;;;23.60;90.30;;;;;;5018854;28;20201;-73
2021/07/21 09:59:58;;;;;;;0.43;0.28;;;23.40;91.60;;;;;;5018778;28;20202;-73
2021/07/21 10:02:27;;;;;;;0.20;0.20;;;23.20;91.60;;;;;;5019930;28;20237;-73
2021/07/21 10:04:54;;;;;;;0.52;0.52;;;23.40;92.10;;;;;;5014690;28;20305;-74
2021/07/21 10:10:11;;;;;;;0.35;0.35;;;24.50;89.50;;;;;;5015298;28;20293;-74
2021/07/21 10:12:37;;;;;;;0.10;0.10;;;24.40;90.10;;;;;;5013313;28;20228;-74
2021/07/21 10:15:04;;;;;;;0.20;0.20;;;24.50;92.30;;;;;;5014171;28;20206;-74
2021/07/21 10:17:30;;;;;;;0.10;0.10;;;24.80;83.90;;;;;;5017592;28;20299;-74
2021/07/21 10:19:56;;;;;;;0.20;0.20;;;24.60;85.00;;;;;;5016574;28;20198;-74
2021/07/21 10:22:23;;;;;;;0.30;0.30;;;25.00;87.80;;;;;;5025534;28;20190;-74
2021/07/21 10:24:49;;;;;;;0.10;0.10;;;25.60;87.90;;;;;;5017035;28;20222;-74
2021/07/21 10:27:15;;;;;;;1.65;0.47;;;25.60;86.60;;;;;;5018481;28;20241;-74
2021/07/21 10:29:42;;;;;;;1.75;0.50;;;25.40;85.50;;;;;;5018243;28;20651;-74
2021/07/21 10:32:10;;;;;;;0.10;0.10;;;25.30;84.00;;;;;;5017415;28;20321;-74
2021/07/21 10:34:37;;;;;;;0.20;0.20;;;25.00;81.50;;;;;;5024991;28;20688;-74
2021/07/21 10:37:03;;;;;;;0.10;0.10;;;24.90;85.80;;;;;;5016699;28;20649;-74
2021/07/21 10:39:32;;;;;;;0.20;0.20;;;25.00;86.10;;;;;;5023135;28;20207;-74
2021/07/21 10:42:10;;;;;;;0.32;0.32;;;25.10;83.70;;;;;;5023723;28;20220;-74
2021/07/21 10:44:36;;;;;;;0.20;0.20;;;25.20;84.00;;;;;;5021248;28;20680;-74
2021/07/21 10:47:24;;;;;;;0.13;0.13;;;25.20;79.40;;;;;;5020939;28;20198;-75
2021/07/21 10:50:03;;;;;;;0.30;0.30;;;24.70;79.70;;;;;;5022293;28;20205;-74
2021/07/21 10:55:14;;;;;;;0.20;0.15;;;25.40;84.80;;;;;;5021534;28;20202;-74
2021/07/21 11:00:24;;;;;;;0.28;0.28;;;25.10;82.70;;;;;;5020981;28;20218;-74
2021/07/21 11:02:52;;;;;;;0.10;0.10;;;25.40;80.80;;;;;;5023044;28;20759;-74
2021/07/21 11:05:33;;;;;;;0.40;0.40;;;26.00;82.40;;;;;;5015731;28;20198;-75
2021/07/21 11:08:01;;;;;;;0.20;0.20;;;26.10;79.00;;;;;;5019521;28;20633;-74
2021/07/21 11:10:31;;;;;;;0.10;0.10;;;26.20;83.50;;;;;;5015824;28;20693;-75
2021/07/21 11:12:57;;;;;;;0.20;0.20;;;26.10;79.90;;;;;;5020695;28;20194;-74
2021/07/21 11:15:37;;;;;;;0.10;0.10;;;26.20;74.10;;;;;;5019921;28;20199;-75
2021/07/21 11:18:21;;;;;;;0.15;0.15;;;26.40;76.50;;;;;;5024263;28;20197;-75
2021/07/21 11:21:16;;;;;;;0.13;0.13;;;26.50;77.50;;;;;;5021836;28;20292;-74
2021/07/21 11:23:51;;;;;;;0.10;0.10;;;26.10;77.70;;;;;;5025648;28;20193;-75
2021/07/21 11:26:38;;;;;;;0.10;0.10;;;26.40;77.50;;;;;;5021652;28;20196;-75
2021/07/21 11:29:25;;;;;;;0.10;0.10;;;26.30;75.00;;;;;;5020043;28;20300;-74
2021/07/21 11:31:54;;;;;;;0.10;0.10;;;26.10;80.80;;;;;;5020604;28;20206;-74
2021/07/21 11:34:36;;;;;;;0.17;0.17;;;26.30;78.10;;;;;;5020581;28;20248;-74
2021/07/21 11:37:07;;;;;;;0.17;0.17;;;26.50;82.30;;;;;;5037562;28;20203;-75
2021/07/21 11:40:12;;;;;;;0.10;0.10;;;26.70;78.00;;;;;;5026992;28;20778;-75
2021/07/21 11:42:40;;;;;;;0.20;0.20;;;26.70;75.30;;;;;;5022010;28;20206;-75
2021/07/21 11:45:08;;;;;;;0.10;0.10;;;26.50;78.70;;;;;;5019330;28;20198;-75
2021/07/21 11:47:41;;;;;;;0.22;0.22;;;26.80;80.70;;;;;;5022191;28;20292;-74
2021/07/21 11:50:17;;;;;;;0.10;0.10;;;27.00;71.60;;;;;;5020058;28;20213;-74
2021/07/21 11:52:44;;;;;;;0.10;0.10;;;26.70;70.60;;;;;;5024043;28;20251;-75
2021/07/21 11:55:11;;;;;;;0.20;0.20;;;26.20;72.00;;;;;;5019659;28;20281;-75
2021/07/21 11:57:37;;;;;;;0.45;0.20;;;26.10;75.00;;;;;;5016523;28;20201;-75
2021/07/21 12:00:04;;;;;;;0.10;0.10;;;26.40;77.10;;;;;;5024426;28;20621;-75
2021/07/21 12:02:30;;;;;;;0.20;0.20;;;26.40;78.60;;;;;;5014659;28;20247;-75
2021/07/21 12:05:01;;;;;;;0.10;0.10;;;26.50;78.40;;;;;;5018908;28;20281;-75
2021/07/21 12:07:35;;;;;;;0.10;0.10;;;27.00;79.50;;;;;;5020674;28;20198;-75
2021/07/21 12:10:15;;;;;;;0.15;0.15;;;27.90;73.60;;;;;;5019427;28;20251;-75
2021/07/21 12:12:41;;;;;;;0.10;0.10;;;27.60;69.40;;;;;;5015319;28;20240;-75
2021/07/21 12:15:09;;;;;;;0.13;0.13;;;27.30;70.10;;;;;;5019937;28;20272;-75
2021/07/21 12:17:35;;;;;;;0.10;0.10;;;26.90;72.60;;;;;;5019343;28;20544;-73
2021/07/21 12:20:08;;;;;;;1.17;0.52;;;26.90;71.70;;;;;;5025989;28;20194;-75
2021/07/21 12:22:36;;;;;;;0.10;0.10;;;27.10;73.80;;;;;;5014471;28;20210;-75
2021/07/21 12:25:08;;;;;;;0.32;0.30;;;27.60;72.50;;;;;;5021863;28;20201;-75
2021/07/21 12:27:40;;;;;;;0.10;0.10;;;27.70;74.60;;;;;;5021914;28;20285;-74
2021/07/21 12:30:14;;;;;;;0.10;0.10;;;27.60;74.00;;;;;;5015617;28;20210;-75
2021/07/21 12:32:41;;;;;;;0.10;0.10;;;27.60;69.70;;;;;;5022957;28;20229;-75
2021/07/21 12:35:09;;;;;;;0.10;0.10;;;27.40;74.20;;;;;;5018018;28;20237;-75
2021/07/21 12:37:43;;;;;;;0.20;0.20;;;27.60;71.80;;;;;;5016786;28;20269;-75
2021/07/21 12:40:12;;;;;;;0.10;0.10;;;27.60;68.30;;;;;;5020566;28;20303;-75
2021/07/21 12:42:39;;;;;;;2.17;0.35;;;28.00;70.50;;;;;;5016948;28;20217;-74
2021/07/21 12:45:09;;;;;;;0.10;0.10;;;28.10;71.00;;;;;;5018323;28;20201;-75
2021/07/21 12:47:38;;;;;;;0.08;0.08;;;28.10;66.10;;;;;;5021360;28;20284;-74
2021/07/21 12:50:17;;;;;;;0.20;0.20;;;28.30;68.00;;;;;;5017574;28;20755;-75
2021/07/21 12:52:46;;;;;;;0.20;0.20;;;28.50;71.00;;;;;;5024774;28;20279;-74
2021/07/21 12:55:18;;;;;;;0.10;0.10;;;28.10;67.90;;;;;;5020330;28;20292;-75
2021/07/21 12:57:48;;;;;;;0.10;0.10;;;27.80;70.30;;;;;;5019439;28;20671;-75
2021/07/21 13:00:23;;;;;;;0.10;0.10;;;27.40;70.20;;;;;;5019147;28;20205;-75
2021/07/21 13:03:02;;;;;;;0.15;0.15;;;27.00;69.00;;;;;;5021179;28;20236;-74
2021/07/21 13:05:30;;;;;;;0.10;0.10;;;27.10;70.80;;;;;;5020133;28;20197;-74
2021/07/21 13:08:01;;;;;;;0.10;0.10;;;27.10;68.50;;;;;;5020003;28;20658;-74